createdAt,value
2023-09-28T00:02:55.651Z,85
2023-09-28T00:04:55.677Z,86
2023-09-28T00:08:57.929Z,85
2023-09-28T00:10:55.489Z,86
2023-09-28T00:12:57.691Z,86
2023-09-28T00:14:58.926Z,85
2023-09-28T00:16:55.716Z,85
2023-09-28T00:18:56.062Z,85
2023-09-28T00:20:55.083Z,85
2023-09-28T00:22:58.248Z,85
2023-09-28T00:24:58.965Z,85
2023-09-28T00:26:58.980Z,85
2023-09-28T00:28:55.435Z,85
2023-09-28T00:30:58.037Z,85
2023-09-28T00:32:58.743Z,86
2023-09-28T00:34:55.490Z,85
2023-09-28T00:38:58.939Z,86
2023-09-28T00:40:55.509Z,86
2023-09-28T00:42:57.614Z,85
2023-09-28T00:44:56.681Z,85
2023-09-28T00:46:52.216Z,85
2023-09-28T00:48:56.953Z,85
2023-09-28T00:50:58.566Z,85
2023-09-28T00:52:58.298Z,86
2023-09-28T00:54:57.898Z,86
2023-09-28T00:56:58.561Z,85
2023-09-28T00:58:54.308Z,85
2023-09-28T01:00:57.165Z,86
2023-09-28T01:02:58.638Z,86
2023-09-28T01:04:58.620Z,86
2023-09-28T01:06:58.069Z,86
2023-09-28T01:10:58.659Z,86
2023-09-28T01:12:55.719Z,86
2023-09-28T01:14:57.428Z,86
2023-09-28T01:16:58.753Z,86
2023-09-28T01:20:56.931Z,86
2023-09-28T01:22:58.687Z,87
2023-09-28T01:24:55.099Z,86
2023-09-28T01:26:58.403Z,86
2023-09-28T01:28:58.538Z,86
2023-09-28T01:30:52.307Z,86
2023-09-28T01:32:57.885Z,86
2023-09-28T01:34:58.971Z,85
2023-09-28T01:36:55.528Z,86
2023-09-28T01:38:56.397Z,87
2023-09-28T01:40:58.714Z,87
2023-09-28T01:42:55.520Z,86
2023-09-28T01:44:57.930Z,86
2023-09-28T01:48:58.531Z,85
2023-09-28T01:50:56.063Z,86
2023-09-28T01:52:58.655Z,86
2023-09-28T01:54:58.325Z,86
2023-09-28T01:56:55.478Z,86
2023-09-28T01:58:58.661Z,86
2023-09-28T02:00:55.125Z,86
2023-09-28T02:02:57.918Z,86
2023-09-28T02:04:58.558Z,86
2023-09-28T02:06:57.437Z,86
2023-09-28T02:08:57.465Z,86
2023-09-28T02:18:52.464Z,85
2023-09-28T02:20:55.548Z,86
2023-09-28T02:22:58.598Z,86
2023-09-28T02:24:52.519Z,86
2023-09-28T02:26:57.551Z,87
2023-09-28T02:28:58.939Z,87
2023-09-28T02:30:55.537Z,86
2023-09-28T02:32:58.089Z,86
2023-09-28T02:34:58.788Z,85
2023-09-28T02:36:52.864Z,86
2023-09-28T02:38:58.401Z,86
2023-09-28T02:44:52.336Z,85
2023-09-28T02:46:57.054Z,86
2023-09-28T02:48:58.628Z,86
2023-09-28T02:50:55.447Z,86
2023-09-28T02:52:56.945Z,86
2023-09-28T02:56:57.037Z,86
2023-09-28T02:58:57.530Z,86
2023-09-28T03:00:56.322Z,86
2023-09-28T03:04:55.706Z,86
2023-09-28T03:06:57.543Z,86
2023-09-28T03:10:54.267Z,86
2023-09-28T03:12:53.950Z,86
2023-09-28T03:14:58.466Z,87
2023-09-28T03:16:55.013Z,85
2023-09-28T03:18:52.428Z,86
2023-09-28T03:22:55.245Z,86
2023-09-28T03:24:59.066Z,86
2023-09-28T03:27:09.831Z,86
2023-09-28T03:28:58.461Z,86
2023-09-28T03:30:57.556Z,86
2023-09-28T03:32:58.805Z,86
2023-09-28T03:34:58.975Z,86
2023-09-28T03:36:59.070Z,85
2023-09-28T03:38:58.704Z,85
2023-09-28T03:40:55.856Z,86
2023-09-28T03:42:56.597Z,86
2023-09-28T03:46:55.440Z,85
2023-09-28T03:48:56.821Z,86
2023-09-28T03:50:58.676Z,86
2023-09-28T03:54:55.643Z,86
2023-09-28T03:56:55.520Z,86
2023-09-28T04:00:58.666Z,86
2023-09-28T04:02:56.128Z,85
2023-09-28T04:04:58.576Z,86
2023-09-28T04:06:55.661Z,86
2023-09-28T04:08:58.063Z,86
2023-09-28T04:10:58.868Z,86
2023-09-28T04:12:55.701Z,85
2023-09-28T04:14:54.864Z,86
2023-09-28T04:16:58.679Z,85
2023-09-28T04:18:55.580Z,86
2023-09-28T04:20:57.277Z,85
2023-09-28T04:22:58.727Z,85
2023-09-28T04:24:55.512Z,85
2023-09-28T04:26:57.946Z,85
2023-09-28T04:28:58.743Z,85
2023-09-28T04:30:55.703Z,85
2023-09-28T04:32:57.300Z,85
2023-09-28T04:34:57.367Z,85
2023-09-28T04:36:55.364Z,85
2023-09-28T04:38:57.348Z,84
2023-09-28T04:42:57.102Z,85
2023-09-28T04:44:57.511Z,85
2023-09-28T04:48:57.721Z,85
2023-09-28T04:50:55.611Z,85
2023-09-28T04:52:58.361Z,85
2023-09-28T04:54:58.515Z,85
2023-09-28T04:56:53.683Z,85
2023-09-28T04:58:58.950Z,86
2023-09-28T05:04:58.674Z,86
2023-09-28T05:06:54.304Z,85
2023-09-28T05:08:56.702Z,86
2023-09-28T05:10:58.801Z,86
2023-09-28T05:12:55.496Z,86
2023-09-28T05:14:58.065Z,85
2023-09-28T05:18:58.846Z,86
2023-09-28T05:20:58.363Z,85
2023-09-28T05:22:55.212Z,86
2023-09-28T05:24:58.570Z,85
2023-09-28T05:26:52.637Z,85
2023-09-28T05:28:55.626Z,85
2023-09-28T05:30:58.171Z,85
2023-09-28T05:32:57.386Z,85
2023-09-28T05:34:53.381Z,84
2023-09-28T05:36:57.176Z,85
2023-09-28T05:38:58.669Z,84
2023-09-28T05:40:55.766Z,83
2023-09-28T05:42:58.698Z,84
2023-09-28T05:44:55.926Z,84
2023-09-28T05:46:54.181Z,84
2023-09-28T05:48:59.626Z,84
2023-09-28T05:50:54.885Z,84
2023-09-28T05:52:56.469Z,84
2023-09-28T05:54:58.728Z,84
2023-09-28T05:56:55.462Z,84
2023-09-28T05:58:55.686Z,84
2023-09-28T06:02:55.434Z,84
2023-09-28T06:04:57.080Z,84
2023-09-28T06:08:58.688Z,84
2023-09-28T06:11:10.353Z,84
2023-09-28T06:12:58.352Z,84
2023-09-28T06:16:52.266Z,83
2023-09-28T06:18:58.564Z,83
2023-09-28T06:22:53.601Z,83
2023-09-28T06:24:57.319Z,83
2023-09-28T06:26:59.065Z,83
2023-09-28T06:28:58.399Z,83
2023-09-28T06:30:53.646Z,83
2023-09-28T06:32:58.462Z,82
2023-09-28T06:34:55.475Z,82
2023-09-28T06:36:55.208Z,82
2023-09-28T06:40:58.945Z,82
2023-09-28T06:42:57.235Z,82
2023-09-28T06:44:58.075Z,82
2023-09-28T06:46:55.753Z,82
2023-09-28T06:48:58.217Z,81
2023-09-28T06:50:55.374Z,81
2023-09-28T06:52:59.276Z,81
2023-09-28T06:54:58.963Z,81
2023-09-28T06:56:56.877Z,81
2023-09-28T06:58:58.717Z,79
2023-09-28T07:00:58.770Z,78
2023-09-28T07:02:55.585Z,77
2023-09-28T07:04:56.490Z,77
2023-09-28T07:06:57.656Z,79
2023-09-28T07:08:58.298Z,79
2023-09-28T07:10:58.206Z,80
2023-09-28T07:12:57.685Z,79
2023-09-28T07:14:58.713Z,77
2023-09-28T07:18:58.713Z,78
2023-09-28T07:20:57.859Z,77
2023-09-28T07:22:52.597Z,78
2023-09-28T07:28:53.850Z,77
2023-09-28T07:30:58.241Z,77
2023-09-28T07:32:55.725Z,77
2023-09-28T07:34:58.370Z,77
2023-09-28T07:36:58.372Z,77
2023-09-28T07:38:52.683Z,77
2023-09-28T07:40:58.734Z,77
2023-09-28T07:42:58.504Z,77
2023-09-28T07:44:55.763Z,77
2023-09-28T07:46:58.549Z,77
2023-09-28T07:48:59.057Z,77
2023-09-28T07:50:53.661Z,77
2023-09-28T07:52:55.748Z,77
2023-09-28T07:54:58.388Z,76
2023-09-28T07:56:54.996Z,76
2023-09-28T07:58:58.506Z,76
2023-09-28T08:02:55.496Z,75
2023-09-28T08:05:00.661Z,75
2023-09-28T08:08:55.883Z,75
2023-09-28T08:10:58.913Z,76
2023-09-28T08:12:58.250Z,76
2023-09-28T08:14:55.073Z,76
2023-09-28T08:16:55.613Z,76
2023-09-28T08:21:04.309Z,76
2023-09-28T08:22:59.387Z,75
2023-09-28T08:24:58.176Z,76
2023-09-28T08:26:58.649Z,76
2023-09-28T08:28:53.689Z,76
2023-09-28T08:30:58.432Z,76
2023-09-28T08:32:56.571Z,75
2023-09-28T08:34:58.668Z,75
2023-09-28T08:36:58.791Z,75
2023-09-28T08:38:55.352Z,74
2023-09-28T08:40:58.788Z,74
2023-09-28T08:42:55.308Z,75
2023-09-28T08:44:55.637Z,75
2023-09-28T08:46:57.769Z,74
2023-09-28T08:48:57.192Z,74
2023-09-28T08:50:57.969Z,74
2023-09-28T08:52:55.935Z,75
2023-09-28T08:56:56.452Z,75
2023-09-28T08:58:58.596Z,75
2023-09-28T09:00:54.700Z,74
2023-09-28T09:02:57.969Z,74
2023-09-28T09:04:52.252Z,75
2023-09-28T09:06:58.478Z,74
2023-09-28T09:08:57.814Z,74
2023-09-28T09:10:57.232Z,74
2023-09-28T09:12:58.208Z,73
2023-09-28T09:14:58.314Z,72
2023-09-28T09:16:58.624Z,73
2023-09-28T09:18:59.010Z,73
2023-09-28T09:20:53.619Z,73
2023-09-28T09:24:57.259Z,72
2023-09-28T09:26:57.272Z,72
2023-09-28T09:28:58.619Z,73
2023-09-28T09:30:58.726Z,73
2023-09-28T09:32:56.988Z,73
2023-09-28T09:34:55.558Z,72
2023-09-28T09:37:02.038Z,71
2023-09-28T09:38:58.105Z,70
2023-09-28T09:40:55.660Z,71
2023-09-28T09:42:58.501Z,70
2023-09-28T09:44:57.209Z,70
2023-09-28T09:46:58.691Z,70
2023-09-28T09:50:53.672Z,69
2023-09-28T09:52:56.932Z,69
2023-09-28T09:54:53.562Z,68
2023-09-28T09:56:55.409Z,69
2023-09-28T09:58:58.082Z,70
2023-09-28T10:00:55.647Z,69
2023-09-28T10:02:55.823Z,69
2023-09-28T10:04:58.807Z,70
2023-09-28T10:06:56.545Z,70
2023-09-28T10:08:58.073Z,70
2023-09-28T10:12:55.603Z,70
2023-09-28T10:14:57.227Z,69
2023-09-28T10:18:54.868Z,68
2023-09-28T10:20:57.345Z,67
2023-09-28T10:22:58.520Z,67
2023-09-28T10:24:58.576Z,67
2023-09-28T10:26:55.725Z,67
2023-09-28T10:28:58.669Z,66
2023-09-28T10:30:55.074Z,66
2023-09-28T10:32:57.078Z,67
2023-09-28T10:34:58.535Z,66
2023-09-28T10:36:58.622Z,65
2023-09-28T10:38:58.402Z,66
2023-09-28T10:40:52.221Z,66
2023-09-28T10:42:58.490Z,64
2023-09-28T10:45:02.016Z,63
2023-09-28T10:46:57.663Z,64
2023-09-28T10:48:56.049Z,63
2023-09-28T10:50:56.804Z,62
2023-09-28T10:52:56.486Z,62
2023-09-28T10:54:58.533Z,62
2023-09-28T10:56:55.584Z,62
2023-09-28T10:58:58.369Z,62
2023-09-28T11:00:58.716Z,61
2023-09-28T11:02:59.150Z,61
2023-09-28T11:04:58.542Z,59
2023-09-28T11:06:55.664Z,60
2023-09-28T11:08:58.071Z,60
2023-09-28T11:10:53.529Z,59
2023-09-28T11:12:55.584Z,60
2023-09-28T11:14:56.242Z,61
2023-09-28T11:16:56.070Z,62
2023-09-28T11:18:58.498Z,62
2023-09-28T11:20:57.767Z,62
2023-09-28T11:22:57.260Z,62
2023-09-28T11:24:57.202Z,61
2023-09-28T11:26:55.613Z,62
2023-09-28T11:28:58.267Z,62
2023-09-28T11:30:56.864Z,62
2023-09-28T11:32:55.554Z,62
2023-09-28T11:34:55.562Z,62
2023-09-28T11:36:58.286Z,62
2023-09-28T11:38:57.699Z,62
2023-09-28T11:40:55.578Z,63
2023-09-28T11:42:56.117Z,62
2023-09-28T11:44:58.737Z,62
2023-09-28T11:46:56.235Z,62
2023-09-28T11:50:54.873Z,62
2023-09-28T11:52:55.985Z,63
2023-09-28T11:55:02.858Z,63
2023-09-28T11:56:55.579Z,62
2023-09-28T11:59:00.937Z,62
2023-09-28T12:04:58.391Z,63
2023-09-28T12:06:53.548Z,61
2023-09-28T12:08:58.631Z,61
2023-09-28T12:10:55.688Z,60
2023-09-28T12:12:57.549Z,61
2023-09-28T12:14:55.602Z,60
2023-09-28T12:16:57.894Z,59
2023-09-28T12:18:55.800Z,59
2023-09-28T12:20:58.715Z,60
2023-09-28T12:22:58.594Z,59
2023-09-28T12:24:55.546Z,60
2023-09-28T12:26:55.643Z,60
2023-09-28T12:28:52.369Z,59
2023-09-28T12:30:54.142Z,59
2023-09-28T12:33:00.898Z,60
2023-09-28T12:34:59.057Z,59
2023-09-28T12:36:55.911Z,59
2023-09-28T12:38:55.428Z,58
2023-09-28T12:40:53.316Z,58
2023-09-28T12:42:56.291Z,59
2023-09-28T12:44:55.199Z,59
2023-09-28T12:48:55.401Z,59
2023-09-28T12:52:58.374Z,59
2023-09-28T12:54:55.422Z,58
2023-09-28T12:56:58.751Z,58
2023-09-28T12:58:58.727Z,59
2023-09-28T13:00:56.097Z,59
2023-09-28T13:02:58.541Z,59
2023-09-28T13:04:57.245Z,59
2023-09-28T13:06:55.715Z,58
2023-09-28T13:08:58.748Z,58
2023-09-28T13:10:58.876Z,57
2023-09-28T13:12:52.300Z,56
2023-09-28T13:14:58.905Z,56
2023-09-28T13:16:56.762Z,57
2023-09-28T13:18:53.703Z,57
2023-09-28T13:20:55.440Z,58
2023-09-28T13:22:58.484Z,59
2023-09-28T13:24:55.151Z,58
2023-09-28T13:28:55.545Z,58
2023-09-28T13:30:56.087Z,59
2023-09-28T13:32:58.654Z,58
2023-09-28T13:36:55.617Z,57
2023-09-28T13:38:53.651Z,57
2023-09-28T13:41:07.598Z,56
2023-09-28T13:42:57.067Z,56
2023-09-28T13:44:55.751Z,57
2023-09-28T13:46:52.315Z,56
2023-09-28T13:48:56.736Z,56
2023-09-28T13:50:58.451Z,56
2023-09-28T13:53:02.916Z,54
2023-09-28T13:54:55.646Z,55
2023-09-28T13:58:55.466Z,55
2023-09-28T14:00:55.466Z,55
2023-09-28T14:02:55.973Z,54
2023-09-28T14:04:59.061Z,54
2023-09-28T14:06:55.669Z,54
2023-09-28T14:08:58.249Z,54
2023-09-28T14:10:58.695Z,55
2023-09-28T14:12:55.604Z,56
2023-09-28T14:14:55.428Z,56
2023-09-28T14:17:08.391Z,56
2023-09-28T14:18:59.936Z,55
2023-09-28T14:20:58.203Z,55
2023-09-28T14:22:57.454Z,55
2023-09-28T14:24:57.646Z,55
2023-09-28T14:26:56.124Z,54
2023-09-28T14:28:58.533Z,53
2023-09-28T14:32:57.267Z,52
2023-09-28T14:34:58.984Z,54
2023-09-28T14:36:55.374Z,54
2023-09-28T14:39:00.371Z,54
2023-09-28T14:41:00.408Z,54
2023-09-28T14:42:56.989Z,54
2023-09-28T14:44:58.979Z,54
2023-09-28T14:46:58.750Z,56
2023-09-28T14:48:58.454Z,53
2023-09-28T14:50:55.473Z,55
2023-09-28T14:52:57.774Z,54
2023-09-28T14:54:52.273Z,53
2023-09-28T14:56:58.805Z,53
2023-09-28T14:58:59.039Z,53
2023-09-28T15:00:55.617Z,53
2023-09-28T15:02:58.350Z,52
2023-09-28T15:04:58.764Z,51
2023-09-28T15:06:55.631Z,51
2023-09-28T15:08:52.313Z,50
2023-09-28T15:10:58.209Z,52
2023-09-28T15:12:55.032Z,53
2023-09-28T15:14:54.643Z,51
2023-09-28T15:18:55.573Z,53
2023-09-28T15:20:56.151Z,53
2023-09-28T15:22:56.915Z,52
2023-09-28T15:24:55.379Z,51
2023-09-28T15:26:57.781Z,51
2023-09-28T15:28:56.338Z,51
2023-09-28T15:30:55.657Z,50
2023-09-28T15:32:55.843Z,51
2023-09-28T15:34:57.775Z,52
2023-09-28T15:36:58.637Z,52
2023-09-28T15:38:55.431Z,52
2023-09-28T15:40:58.821Z,53
2023-09-28T15:42:52.291Z,53
2023-09-28T15:44:57.277Z,53
2023-09-28T15:46:55.284Z,54
2023-09-28T15:48:55.581Z,54
2023-09-28T15:50:55.617Z,54
2023-09-28T15:52:58.757Z,54
2023-09-28T15:54:58.755Z,54
2023-09-28T15:56:54.902Z,55
2023-09-28T15:58:59.224Z,55
2023-09-28T16:00:55.558Z,56
2023-09-28T16:02:56.532Z,56
2023-09-28T16:04:55.663Z,59
2023-09-28T16:06:58.734Z,57
2023-09-28T16:08:52.324Z,58
2023-09-28T16:10:58.538Z,56
2023-09-28T16:12:55.506Z,59
2023-09-28T16:14:57.959Z,57
2023-09-28T16:16:57.621Z,56
2023-09-28T16:18:59.291Z,55
2023-09-28T16:20:55.588Z,55
2023-09-28T16:23:02.421Z,56
2023-09-28T16:24:56.650Z,56
2023-09-28T16:26:55.676Z,57
2023-09-28T16:29:02.107Z,57
2023-09-28T16:30:58.395Z,59
2023-09-28T16:32:55.895Z,60
2023-09-28T16:34:58.853Z,60
2023-09-28T16:36:56.896Z,60
2023-09-28T16:38:57.156Z,60
2023-09-28T16:42:55.974Z,60
2023-09-28T16:44:55.575Z,61
2023-09-28T16:46:58.933Z,61
2023-09-28T16:48:55.732Z,62
2023-09-28T16:50:56.875Z,61
2023-09-28T16:52:55.587Z,61
2023-09-28T16:54:58.849Z,61
2023-09-28T16:58:55.932Z,65
2023-09-28T17:00:52.455Z,65
2023-09-28T17:02:56.000Z,65
2023-09-28T17:04:57.277Z,64
2023-09-28T17:06:57.376Z,64
2023-09-28T17:10:55.503Z,67
2023-09-28T17:14:55.715Z,67
2023-09-28T17:16:59.164Z,67
2023-09-28T17:18:59.029Z,67
2023-09-28T17:20:56.060Z,67
2023-09-28T17:22:55.506Z,67
2023-09-28T17:25:01.662Z,68
2023-09-28T17:26:56.679Z,68
2023-09-28T17:28:56.174Z,70
2023-09-28T17:30:57.171Z,70
2023-09-28T17:32:55.713Z,71
2023-09-28T17:34:53.894Z,70
2023-09-28T17:36:55.628Z,71
2023-09-28T17:38:56.099Z,70
2023-09-28T17:40:57.419Z,70
2023-09-28T17:42:55.187Z,69
2023-09-28T17:44:58.920Z,68
2023-09-28T17:46:53.702Z,68
2023-09-28T17:48:55.779Z,68
2023-09-28T17:50:56.151Z,69
2023-09-28T17:52:52.573Z,69
2023-09-28T17:54:55.903Z,69
2023-09-28T17:56:55.665Z,69
2023-09-28T17:58:52.594Z,70
2023-09-28T18:00:53.791Z,70
2023-09-28T18:02:59.383Z,70
2023-09-28T18:06:53.757Z,70
2023-09-28T18:08:56.050Z,71
2023-09-28T18:10:53.267Z,72
2023-09-28T18:12:58.916Z,73
2023-09-28T18:14:53.792Z,73
2023-09-28T18:16:55.731Z,73
2023-09-28T18:20:53.677Z,69
2023-09-28T18:22:53.763Z,68
2023-09-28T18:24:55.178Z,68
2023-09-28T18:26:55.772Z,68
2023-09-28T18:28:53.106Z,68
2023-09-28T18:30:59.097Z,69
2023-09-28T18:33:00.718Z,69
2023-09-28T18:34:56.191Z,69
2023-09-28T18:39:03.728Z,68
2023-09-28T18:40:59.037Z,70
2023-09-28T18:42:55.936Z,72
2023-09-28T18:44:56.110Z,73
2023-09-28T18:46:56.032Z,74
2023-09-28T18:48:53.383Z,73
2023-09-28T18:50:53.176Z,73
2023-09-28T18:54:52.960Z,72
2023-09-28T18:56:53.927Z,72
2023-09-28T18:58:52.630Z,70
2023-09-28T19:00:53.808Z,70
2023-09-28T19:02:55.536Z,71
2023-09-28T19:04:52.889Z,71
2023-09-28T19:08:52.639Z,70
2023-09-28T19:10:55.716Z,70
2023-09-28T19:12:53.741Z,68
2023-09-28T19:14:55.832Z,70
2023-09-28T19:16:59.964Z,71
2023-09-28T19:18:53.515Z,71
2023-09-28T19:20:52.506Z,70
2023-09-28T19:22:55.355Z,72
2023-09-28T19:24:53.085Z,72
2023-09-28T19:26:59.282Z,73
2023-09-28T19:28:55.797Z,71
2023-09-28T19:31:00.460Z,70
2023-09-28T19:32:53.989Z,71
2023-09-28T19:34:59.916Z,71
2023-09-28T19:36:56.090Z,71
2023-09-28T19:38:55.699Z,71
2023-09-28T19:40:55.604Z,71
2023-09-28T19:42:54.274Z,71
2023-09-28T19:44:52.606Z,71
2023-09-28T19:46:53.110Z,71
2023-09-28T19:49:00.374Z,71
2023-09-28T19:50:52.548Z,71
2023-09-28T19:54:55.927Z,70
2023-09-28T19:56:52.918Z,70
2023-09-28T19:58:55.933Z,70
2023-09-28T20:00:55.451Z,70
2023-09-28T20:02:59.850Z,71
2023-09-28T20:04:56.052Z,71
2023-09-28T20:06:57.392Z,72
2023-09-28T20:08:52.556Z,72
2023-09-28T20:10:54.433Z,70
2023-09-28T20:13:00.649Z,71
2023-09-28T20:14:53.957Z,70
2023-09-28T20:16:53.177Z,70
2023-09-28T20:18:59.137Z,69
2023-09-28T20:20:55.293Z,69
2023-09-28T20:22:58.530Z,69
2023-09-28T20:24:55.757Z,69
2023-09-28T20:26:53.796Z,68
2023-09-28T20:28:53.113Z,67
2023-09-28T20:30:55.188Z,66
2023-09-28T20:32:52.563Z,67
2023-09-28T20:36:55.984Z,67
2023-09-28T20:38:59.808Z,69
2023-09-28T20:40:58.997Z,68
2023-09-28T20:42:55.118Z,73
2023-09-28T20:44:53.027Z,75
2023-09-28T20:46:55.873Z,74
2023-09-28T20:48:59.912Z,74
2023-09-28T20:50:52.537Z,74
2023-09-28T20:52:55.713Z,74
2023-09-28T20:54:53.409Z,74
2023-09-28T20:56:55.963Z,75
2023-09-28T20:58:53.832Z,76
2023-09-28T21:00:53.223Z,77
2023-09-28T21:02:53.965Z,78
2023-09-28T21:04:57.202Z,77
2023-09-28T21:06:55.274Z,76
2023-09-28T21:08:53.065Z,76
2023-09-28T21:10:53.153Z,76
2023-09-28T21:12:55.774Z,75
2023-09-28T21:14:59.565Z,75
2023-09-28T21:16:58.143Z,75
2023-09-28T21:18:53.421Z,77
2023-09-28T21:20:53.106Z,79
2023-09-28T21:22:55.211Z,78
2023-09-28T21:24:55.629Z,80
2023-09-28T21:26:55.199Z,79
2023-09-28T21:28:59.985Z,80
2023-09-28T21:30:53.228Z,80
2023-09-28T21:32:58.824Z,79
2023-09-28T21:34:53.890Z,78
2023-09-28T21:36:53.645Z,79
2023-09-28T21:38:53.285Z,79
2023-09-28T21:42:53.497Z,80
2023-09-28T21:50:55.549Z,81
2023-09-28T21:52:54.049Z,81
2023-09-28T21:54:53.735Z,81
2023-09-28T21:56:58.360Z,81
2023-09-28T21:58:53.662Z,81
2023-09-28T22:00:52.669Z,81
2023-09-28T22:02:55.320Z,81
2023-09-28T22:04:53.495Z,82
2023-09-28T22:06:59.514Z,82
2023-09-28T22:08:52.535Z,82
2023-09-28T22:12:53.375Z,81
2023-09-28T22:14:55.561Z,81
2023-09-28T22:16:55.717Z,81
2023-09-28T22:18:53.733Z,81
2023-09-28T22:20:53.082Z,81
2023-09-28T22:22:56.163Z,80
2023-09-28T22:24:56.242Z,80
2023-09-28T22:26:52.639Z,80
2023-09-28T22:28:54.381Z,80
2023-09-28T22:30:55.548Z,81
2023-09-28T22:32:59.316Z,81
2023-09-28T22:34:55.951Z,81
2023-09-28T22:36:55.457Z,81
2023-09-28T22:38:55.394Z,81
2023-09-28T22:42:55.784Z,82
2023-09-28T22:44:59.068Z,82
2023-09-28T22:46:53.678Z,82
2023-09-28T22:48:55.915Z,82
2023-09-28T22:51:01.392Z,82
2023-09-28T22:52:55.843Z,82
2023-09-28T22:58:56.202Z,83
2023-09-28T23:00:55.662Z,83
2023-09-28T23:02:53.810Z,83
2023-09-28T23:04:55.771Z,83
2023-09-28T23:06:52.998Z,83
2023-09-28T23:08:52.603Z,82
2023-09-28T23:10:55.774Z,83
2023-09-28T23:12:55.859Z,83
2023-09-28T23:14:55.621Z,82
2023-09-28T23:16:55.322Z,82
2023-09-28T23:18:53.834Z,82
2023-09-28T23:20:55.888Z,82
2023-09-28T23:22:55.404Z,81
2023-09-28T23:24:59.056Z,81
2023-09-28T23:26:53.804Z,81
2023-09-28T23:28:58.517Z,82
2023-09-28T23:30:53.482Z,82
2023-09-28T23:32:55.782Z,82
2023-09-28T23:34:55.563Z,81
2023-09-28T23:36:59.018Z,81
2023-09-28T23:38:56.280Z,81
2023-09-28T23:40:53.570Z,82
2023-09-28T23:42:54.152Z,82
2023-09-28T23:44:56.092Z,83
2023-09-28T23:46:58.917Z,83
2023-09-28T23:48:55.303Z,83
2023-09-28T23:50:59.601Z,84
2023-09-28T23:52:55.836Z,82
2023-09-28T23:54:55.048Z,81
2023-09-28T23:56:53.734Z,81
